createdAt,value
2022-12-19T03:04:16.232Z,101917.94
2022-12-19T04:04:15.809Z,101891.50
2022-12-19T06:55:05.845Z,101770.38
2022-12-19T06:57:32.955Z,101760.06
2022-12-19T07:00:00.141Z,101767.81
2022-12-19T07:02:30.322Z,101773.88
2022-12-19T07:05:05.883Z,101793.63
2022-12-19T07:07:33.219Z,101790.13
2022-12-19T07:10:00.452Z,101789.31
2022-12-19T07:12:27.717Z,101785.91
2022-12-19T07:14:54.969Z,101771.31
2022-12-19T07:17:23.553Z,101773.97
2022-12-19T07:19:51.141Z,101770.59
2022-12-19T07:22:18.405Z,101762.94
2022-12-19T07:24:45.746Z,101768.88
2022-12-19T07:27:12.939Z,101769.75
2022-12-19T07:29:40.074Z,101756.00
2022-12-19T07:32:07.279Z,101763.78
2022-12-19T07:34:34.557Z,101769.88
2022-12-19T07:37:01.760Z,101770.81
2022-12-19T07:39:28.945Z,101759.66
2022-12-19T07:41:56.124Z,101761.44
2022-12-19T07:44:23.298Z,101764.09
2022-12-19T07:46:50.393Z,101770.16
2022-12-19T07:49:22.422Z,101765.00
2022-12-19T07:51:50.007Z,101771.94
2022-12-19T07:54:17.182Z,101763.34
2022-12-19T07:56:44.289Z,101760.88
2022-12-19T07:59:13.069Z,101758.31
2022-12-19T08:01:40.400Z,101755.75
2022-12-19T08:04:07.616Z,101760.94
2022-12-19T08:06:40.832Z,101751.53
2022-12-19T08:09:08.659Z,101747.28
2022-12-19T08:11:35.815Z,101748.19
2022-12-19T08:14:02.987Z,101738.84
2022-12-19T08:16:30.746Z,101727.66
2022-12-19T08:18:57.944Z,101734.56
2022-12-19T08:21:25.393Z,101731.19
2022-12-19T08:23:52.592Z,101728.66
2022-12-19T08:26:25.119Z,101724.38
2022-12-19T08:28:53.975Z,101727.81
2022-12-19T08:31:22.066Z,101717.44
2022-12-19T08:33:49.548Z,101721.00
2022-12-19T08:36:20.993Z,101712.44
2022-12-19T08:38:48.920Z,101724.53
2022-12-19T08:41:16.835Z,101730.53
2022-12-19T08:43:48.697Z,101735.75
2022-12-19T08:46:17.645Z,101721.19
2022-12-19T08:48:45.095Z,101714.38
2022-12-19T08:51:13.541Z,101709.25
2022-12-19T08:53:41.950Z,101711.84
2022-12-19T08:56:20.020Z,101701.56
2022-12-19T08:58:47.765Z,101689.56
2022-12-19T09:01:19.134Z,101680.16
2022-12-19T09:04:14.216Z,101681.06
2022-12-19T09:06:34.722Z,101675.94
2022-12-19T09:09:04.235Z,101668.19
2022-12-19T09:11:31.457Z,101671.69
2022-12-19T09:13:58.678Z,101676.88
2022-12-19T09:16:27.528Z,101670.84
2022-12-19T09:18:56.895Z,101658.00
2022-12-19T09:21:27.388Z,101657.16
2022-12-19T09:24:01.932Z,101657.13
2022-12-19T09:26:32.893Z,101643.47
2022-12-19T09:29:01.065Z,101645.19
2022-12-19T09:31:29.530Z,101659.91
2022-12-19T09:33:56.708Z,101639.25
2022-12-19T09:36:24.852Z,101638.38
2022-12-19T09:38:56.824Z,101625.53
2022-12-19T09:41:31.618Z,101628.16
2022-12-19T09:44:17.117Z,101620.41
2022-12-19T09:46:44.864Z,101615.28
2022-12-19T09:49:14.077Z,101625.66
2022-12-19T09:51:49.486Z,101604.13
2022-12-19T09:54:37.069Z,101604.16
2022-12-19T09:57:18.323Z,101608.47
2022-12-19T09:59:57.438Z,101592.13
2022-12-19T10:02:46.540Z,101589.59
2022-12-19T10:05:47.646Z,101590.47
2022-12-19T10:08:26.371Z,101575.84
2022-12-19T10:12:38.936Z,101569.84
2022-12-19T10:14:15.261Z,101566.41
2022-12-19T10:17:28.082Z,101575.06
2022-12-19T10:20:18.075Z,101588.84
2022-12-19T10:23:09.629Z,101565.59
2022-12-19T10:25:55.254Z,101553.53
2022-12-19T10:29:02.296Z,101557.88
2022-12-19T10:31:42.407Z,101553.56
2022-12-19T10:34:22.408Z,101545.81
2022-12-19T10:37:27.082Z,101538.06
2022-12-19T10:39:45.613Z,101538.06
2022-12-19T10:42:22.768Z,101539.78
2022-12-19T10:44:50.956Z,101535.50
2022-12-19T10:47:18.111Z,101533.78
2022-12-19T10:49:45.280Z,101522.53
2022-12-19T10:52:13.393Z,101510.44
2022-12-19T10:54:42.643Z,101500.94
2022-12-19T10:57:24.556Z,101507.00
2022-12-19T11:00:03.860Z,101502.66
2022-12-19T11:02:35.873Z,101486.25
2022-12-19T11:05:05.815Z,101487.97
2022-12-19T11:07:33.102Z,101492.28
2022-12-19T11:11:40.679Z,101492.28
2022-12-19T11:16:25.161Z,101478.47
2022-12-19T11:19:41.645Z,101470.66
2022-12-19T11:28:56.996Z,101461.16
2022-12-19T11:29:25.173Z,101462.00
2022-12-19T11:29:54.652Z,101451.63
2022-12-19T11:30:48.668Z,101455.94
2022-12-19T11:33:18.969Z,101441.22
2022-12-19T11:35:51.992Z,101449.03
2022-12-19T11:38:29.556Z,101434.31
2022-12-19T11:40:57.783Z,101448.97
2022-12-19T11:43:54.163Z,101444.66
2022-12-19T11:46:40.755Z,101431.69
2022-12-19T11:49:13.859Z,101424.78
2022-12-19T11:51:58.168Z,101427.38
2022-12-19T11:54:57.747Z,101416.16
2022-12-19T11:57:25.238Z,101416.13
2022-12-19T11:59:53.868Z,101414.44
2022-12-19T12:02:42.820Z,101423.06
2022-12-19T12:05:24.356Z,101412.69
2022-12-19T12:09:40.220Z,101406.66
2022-12-19T12:16:16.114Z,101407.50
2022-12-19T12:23:42.159Z,101397.94
2022-12-19T12:29:13.034Z,101396.22
2022-12-19T12:31:16.501Z,101390.16
2022-12-19T12:31:38.991Z,101390.13
2022-12-19T12:31:50.063Z,101387.53
2022-12-19T12:31:56.045Z,101391.84
2022-12-19T12:35:11.082Z,101387.56
2022-12-19T12:41:56.734Z,101371.16
2022-12-19T12:44:32.677Z,101372.84
2022-12-19T12:47:22.322Z,101381.47
2022-12-19T12:50:04.144Z,101380.59
2022-12-19T12:52:38.373Z,101382.28
2022-12-19T12:55:16.063Z,101365.84
2022-12-19T12:57:43.275Z,101365.81
2022-12-19T13:00:33.418Z,101367.53
2022-12-19T13:03:07.418Z,101371.84
2022-12-19T13:06:04.639Z,101370.09
2022-12-19T13:08:38.190Z,101355.38
2022-12-19T13:11:44.301Z,101356.19
2022-12-19T13:14:37.067Z,101351.88
2022-12-19T13:17:08.362Z,101344.97
2022-12-19T13:19:38.746Z,101347.50
2022-12-19T13:22:08.637Z,101340.59
2022-12-19T13:24:41.652Z,101344.94
2022-12-19T13:27:20.799Z,101337.13
2022-12-19T13:29:59.856Z,101332.84
2022-12-19T13:32:33.188Z,101333.72
2022-12-19T13:35:27.845Z,101325.94
2022-12-19T13:40:02.471Z,101332.81
2022-12-19T13:40:43.066Z,101331.06
2022-12-19T13:43:37.239Z,101332.78
2022-12-19T13:46:07.424Z,101337.91
2022-12-19T13:48:46.469Z,101334.38
2022-12-19T13:51:14.136Z,101329.19
2022-12-19T13:53:43.219Z,101324.84
2022-12-19T13:56:18.087Z,101335.22
2022-12-19T13:58:53.361Z,101318.81
2022-12-19T14:01:28.939Z,101310.13
2022-12-19T14:04:02.503Z,101315.28
2022-12-19T14:06:43.831Z,101310.13
2022-12-19T14:11:32.417Z,101312.69
2022-12-19T14:13:48.786Z,101309.25
2022-12-19T14:15:44.259Z,101308.34
2022-12-19T14:18:44.158Z,101312.66
2022-12-19T14:22:11.803Z,101313.63
2022-12-19T14:24:23.325Z,101311.88
2022-12-19T16:08:27.220Z,101266.78
2022-12-19T19:29:35.324Z,101177.66
2022-12-19T19:32:02.693Z,101188.00
